Time;durP1;ratioP1;P1;durP2;ratioP2;P2;SDS_P1;SDS_P2;PMS_P1;PMS_P2;Temp;Humidity;BMP_temperature;BMP_pressure;BME280_temperature;BME280_humidity;BME280_pressure;Samples;Min_cycle;Max_cycle;Signal;HPM_P1;HPM_P2
2023/03/31 00:01:53;;;;;;;0.80;0.40;;;12.40;99.90;;;;;;5114971;28;20441;-63
2023/03/31 00:04:22;;;;;;;1.40;0.40;;;12.40;99.90;;;;;;5112289;28;21044;-63
2023/03/31 00:06:52;;;;;;;1.40;0.40;;;12.40;99.90;;;;;;5115784;28;20424;-63
2023/03/31 00:09:20;;;;;;;1.20;0.80;;;12.40;99.90;;;;;;5116693;28;20420;-63
2023/03/31 00:11:50;;;;;;;1.70;0.40;;;12.40;99.90;;;;;;5118536;28;20430;-64
2023/03/31 00:14:18;;;;;;;0.90;0.30;;;12.40;99.90;;;;;;5118817;28;20518;-63
2023/03/31 00:16:45;;;;;;;0.87;0.30;;;12.40;99.90;;;;;;5118661;28;20976;-64
2023/03/31 00:19:18;;;;;;;0.65;0.30;;;12.40;99.90;;;;;;5117068;28;20435;-63
2023/03/31 00:21:47;;;;;;;0.80;0.40;;;12.40;99.90;;;;;;5116829;28;20492;-63
2023/03/31 00:24:15;;;;;;;1.30;0.40;;;12.40;99.90;;;;;;5116724;28;20420;-66
2023/03/31 00:26:42;;;;;;;1.77;0.40;;;12.40;99.90;;;;;;5117006;28;20701;-63
2023/03/31 00:29:13;;;;;;;1.00;0.30;;;12.40;99.90;;;;;;5117790;28;20419;-63
2023/03/31 00:31:40;;;;;;;1.50;0.50;;;12.40;99.90;;;;;;5118435;28;20715;-63
2023/03/31 00:34:08;;;;;;;1.20;0.40;;;12.50;99.90;;;;;;5119106;28;20419;-63
2023/03/31 00:36:46;;;;;;;1.20;0.40;;;12.50;99.90;;;;;;5111785;28;20456;-62
2023/03/31 00:39:14;;;;;;;0.82;0.30;;;12.50;99.90;;;;;;5102489;28;20428;-63
2023/03/31 00:41:42;;;;;;;0.93;0.40;;;12.40;99.90;;;;;;5098518;28;20472;-63
2023/03/31 00:44:14;;;;;;;0.90;0.40;;;12.40;99.90;;;;;;5098185;28;20478;-62
2023/03/31 00:46:48;;;;;;;1.02;0.40;;;12.40;99.90;;;;;;5097702;28;20501;-64
2023/03/31 00:49:21;;;;;;;1.58;0.50;;;12.40;99.90;;;;;;5098026;28;20845;-63
2023/03/31 00:51:49;;;;;;;1.40;0.40;;;12.40;99.90;;;;;;5095363;28;20842;-63
2023/03/31 00:54:18;;;;;;;1.30;0.40;;;12.40;99.90;;;;;;5094657;28;20450;-63
2023/03/31 00:56:48;;;;;;;2.10;0.40;;;12.50;99.90;;;;;;5097952;28;20560;-62
2023/03/31 00:59:16;;;;;;;0.90;0.30;;;12.40;99.90;;;;;;5109408;28;20487;-64
2023/03/31 01:01:49;;;;;;;1.30;0.40;;;12.40;99.90;;;;;;5117657;28;20427;-63
2023/03/31 01:04:21;;;;;;;1.23;0.50;;;12.50;99.90;;;;;;5117364;28;20420;-63
2023/03/31 01:06:59;;;;;;;1.40;0.40;;;12.50;99.90;;;;;;5117631;28;20934;-62
2023/03/31 01:09:33;;;;;;;1.30;0.40;;;12.50;99.90;;;;;;5118146;28;20412;-64
2023/03/31 01:12:04;;;;;;;1.30;0.40;;;12.50;99.90;;;;;;5117855;28;20428;-63
2023/03/31 01:14:33;;;;;;;0.70;0.40;;;12.50;99.90;;;;;;5117783;28;20503;-63
2023/03/31 01:17:01;;;;;;;1.47;0.40;;;12.40;99.90;;;;;;5116676;28;20451;-64
2023/03/31 01:19:41;;;;;;;1.00;0.30;;;12.40;99.90;;;;;;5117156;28;20744;-64
2023/03/31 01:22:45;;;;;;;0.60;0.40;;;12.40;99.90;;;;;;5117659;28;20427;-63
2023/03/31 01:25:51;;;;;;;1.30;0.40;;;12.50;99.90;;;;;;5116567;28;20415;-63
2023/03/31 01:28:31;;;;;;;1.10;0.40;;;12.50;99.90;;;;;;5117195;28;20731;-63
2023/03/31 01:31:33;;;;;;;2.50;0.50;;;12.50;99.90;;;;;;5116891;28;20419;-63
2023/03/31 01:34:36;;;;;;;0.73;0.40;;;12.40;99.90;;;;;;5115772;28;20447;-63
2023/03/31 01:37:53;;;;;;;0.90;0.40;;;12.30;99.90;;;;;;5090840;28;20429;-62
2023/03/31 01:40:39;;;;;;;0.90;0.40;;;12.30;99.90;;;;;;5116470;28;20732;-63
2023/03/31 01:43:14;;;;;;;1.50;0.50;;;12.30;99.90;;;;;;5115002;28;20847;-63
2023/03/31 01:45:51;;;;;;;0.90;0.40;;;12.30;99.90;;;;;;5115352;28;20420;-64
2023/03/31 01:48:28;;;;;;;1.50;0.50;;;12.30;99.90;;;;;;5115899;28;20488;-64
2023/03/31 01:50:59;;;;;;;1.50;0.40;;;12.30;99.90;;;;;;5115854;28;20408;-64
2023/03/31 01:53:33;;;;;;;1.00;0.40;;;12.40;99.90;;;;;;5114584;28;20416;-63
2023/03/31 01:56:08;;;;;;;1.10;0.50;;;12.50;99.90;;;;;;5116184;28;20625;-63
2023/03/31 01:58:37;;;;;;;1.42;0.40;;;12.50;99.90;;;;;;5116201;28;21010;-61
2023/03/31 02:01:13;;;;;;;0.90;0.30;;;12.50;99.90;;;;;;5116923;28;20412;-60
2023/03/31 02:03:45;;;;;;;1.10;0.40;;;12.50;99.90;;;;;;5116934;28;20470;-62
2023/03/31 02:06:18;;;;;;;1.88;0.40;;;12.50;99.90;;;;;;5116468;28;20416;-64
2023/03/31 02:08:48;;;;;;;1.00;0.50;;;12.60;99.90;;;;;;5116993;28;20443;-63
2023/03/31 02:11:17;;;;;;;1.73;0.38;;;12.50;99.90;;;;;;5116249;28;20972;-62
2023/03/31 02:13:48;;;;;;;1.48;0.40;;;12.40;99.90;;;;;;5095543;28;20424;-63
2023/03/31 02:16:23;;;;;;;1.20;0.30;;;12.30;99.90;;;;;;5095424;28;20418;-62
2023/03/31 02:18:53;;;;;;;0.80;0.40;;;12.20;99.90;;;;;;5095226;28;20912;-62
2023/03/31 02:21:22;;;;;;;1.40;0.40;;;12.20;99.90;;;;;;5093785;28;20505;-62
2023/03/31 02:23:51;;;;;;;1.60;0.40;;;12.20;99.90;;;;;;5093167;28;20482;-62
2023/03/31 02:26:26;;;;;;;0.95;0.40;;;12.10;99.90;;;;;;5094628;28;20479;-62
2023/03/31 02:28:53;;;;;;;1.40;0.40;;;12.00;99.90;;;;;;5105440;28;20422;-61
2023/03/31 02:31:28;;;;;;;1.30;0.50;;;12.10;99.90;;;;;;5093515;28;20753;-62
2023/03/31 02:33:56;;;;;;;0.90;0.40;;;11.90;99.90;;;;;;5092967;28;21047;-62
2023/03/31 02:36:23;;;;;;;0.70;0.40;;;11.90;99.90;;;;;;5094731;28;20418;-61
2023/03/31 02:38:54;;;;;;;2.90;0.40;;;11.80;99.90;;;;;;5096083;28;20714;-64
2023/03/31 02:41:22;;;;;;;1.65;0.40;;;11.80;99.90;;;;;;5095647;28;20705;-62
2023/03/31 02:43:49;;;;;;;1.85;0.50;;;11.90;99.90;;;;;;5094617;28;20449;-63
2023/03/31 02:46:17;;;;;;;2.03;0.50;;;11.80;99.90;;;;;;5094069;28;20849;-62
2023/03/31 02:48:47;;;;;;;2.00;0.50;;;11.80;99.90;;;;;;5095473;28;20424;-63
2023/03/31 02:51:50;;;;;;;2.55;0.50;;;11.70;99.90;;;;;;5095547;28;20903;-63
2023/03/31 02:54:40;;;;;;;1.10;0.50;;;11.60;99.90;;;;;;5093469;28;20505;-62
2023/03/31 02:57:38;;;;;;;1.00;0.50;;;11.60;99.90;;;;;;5095183;28;20506;-62
2023/03/31 03:00:14;;;;;;;1.67;0.50;;;11.60;99.90;;;;;;5095516;28;20424;-61
2023/03/31 03:02:53;;;;;;;1.15;0.45;;;11.60;99.90;;;;;;5095013;28;20425;-61
2023/03/31 03:05:33;;;;;;;2.17;0.50;;;11.60;99.90;;;;;;5091604;28;20889;-61
2023/03/31 03:08:11;;;;;;;1.80;0.50;;;11.60;99.90;;;;;;5093287;28;20429;-62
2023/03/31 03:10:48;;;;;;;0.88;0.50;;;11.60;99.90;;;;;;5093406;28;20418;-62
2023/03/31 03:13:23;;;;;;;2.30;0.50;;;11.60;99.90;;;;;;5091471;28;20749;-62
2023/03/31 03:15:58;;;;;;;1.37;0.60;;;11.60;99.90;;;;;;5090740;28;20421;-62
2023/03/31 03:18:26;;;;;;;1.70;0.50;;;11.60;99.90;;;;;;5091977;28;20437;-62
2023/03/31 03:20:53;;;;;;;0.90;0.60;;;11.50;99.90;;;;;;5091720;28;20414;-63
2023/03/31 03:23:21;;;;;;;1.40;0.50;;;11.50;99.90;;;;;;5093493;28;20721;-62
2023/03/31 03:25:48;;;;;;;2.00;1.30;;;11.40;99.90;;;;;;5093136;28;20418;-63
2023/03/31 03:28:17;;;;;;;2.13;0.70;;;11.40;99.90;;;;;;5097923;28;20420;-64
2023/03/31 03:30:44;;;;;;;1.60;0.60;;;11.30;99.90;;;;;;5113714;28;20473;-62
2023/03/31 03:33:15;;;;;;;1.77;0.50;;;11.30;99.90;;;;;;5113700;28;20774;-62
2023/03/31 03:35:43;;;;;;;1.20;0.50;;;11.20;99.90;;;;;;5112263;28;20423;-64
2023/03/31 03:38:10;;;;;;;0.98;0.50;;;11.10;99.90;;;;;;5113552;28;20428;-63
2023/03/31 03:40:37;;;;;;;2.00;0.60;;;11.00;99.90;;;;;;5113773;28;20846;-63
2023/03/31 03:43:04;;;;;;;0.90;0.50;;;11.00;99.90;;;;;;5114534;28;20838;-62
2023/03/31 03:45:33;;;;;;;1.42;0.50;;;11.00;99.90;;;;;;5115069;28;20423;-62
2023/03/31 03:48:00;;;;;;;1.35;0.50;;;11.00;99.90;;;;;;5114450;28;20420;-64
2023/03/31 03:50:27;;;;;;;0.80;0.50;;;10.90;99.90;;;;;;5115246;28;20427;-64
2023/03/31 03:52:54;;;;;;;1.52;0.98;;;10.90;99.90;;;;;;5114376;28;20847;-63
2023/03/31 03:55:21;;;;;;;2.00;0.90;;;10.90;99.90;;;;;;5114442;28;20420;-63
2023/03/31 03:57:49;;;;;;;0.98;0.50;;;10.90;99.90;;;;;;5114746;28;20870;-63
2023/03/31 04:00:17;;;;;;;1.00;0.60;;;10.90;99.90;;;;;;5115105;28;20720;-63
2023/03/31 04:02:45;;;;;;;1.83;0.70;;;10.90;99.90;;;;;;5115435;28;20444;-62
2023/03/31 04:05:12;;;;;;;1.20;0.50;;;10.80;99.90;;;;;;5115074;28;20415;-62
2023/03/31 04:07:42;;;;;;;1.40;0.60;;;10.80;99.90;;;;;;5115411;28;20420;-63
2023/03/31 04:10:10;;;;;;;0.80;0.50;;;10.80;99.90;;;;;;5114613;28;20408;-64
2023/03/31 04:12:37;;;;;;;2.05;0.70;;;10.80;99.90;;;;;;5113928;28;20429;-62
2023/03/31 04:15:05;;;;;;;1.95;0.70;;;10.70;99.90;;;;;;5114421;28;20855;-62
2023/03/31 04:17:33;;;;;;;1.92;0.80;;;10.60;99.90;;;;;;5114633;28;20843;-62
2023/03/31 04:20:04;;;;;;;1.90;0.70;;;10.60;99.90;;;;;;5113291;28;20724;-63
2023/03/31 04:22:34;;;;;;;1.00;0.60;;;10.60;99.90;;;;;;5113246;28;20428;-63
2023/03/31 04:25:02;;;;;;;2.58;0.70;;;10.60;99.90;;;;;;5113151;28;20420;-63
2023/03/31 04:27:29;;;;;;;2.00;0.52;;;10.60;99.90;;;;;;5103199;28;20417;-63
2023/03/31 04:29:56;;;;;;;2.47;0.70;;;10.60;99.90;;;;;;5110057;28;20422;-63
2023/03/31 04:32:24;;;;;;;2.20;0.70;;;10.60;99.90;;;;;;5112355;28;20424;-63
2023/03/31 04:35:01;;;;;;;2.35;0.60;;;10.70;99.90;;;;;;5112825;28;20404;-63
2023/03/31 04:37:33;;;;;;;1.80;0.80;;;10.80;99.90;;;;;;5114010;28;20435;-62
2023/03/31 04:40:08;;;;;;;2.00;0.68;;;10.90;99.90;;;;;;5113635;28;20416;-62
2023/03/31 04:42:35;;;;;;;2.30;0.70;;;10.90;99.90;;;;;;5114166;28;20532;-63
2023/03/31 04:45:02;;;;;;;0.98;0.70;;;11.10;99.90;;;;;;5111995;28;20469;-62
2023/03/31 04:47:29;;;;;;;2.72;0.80;;;11.10;99.90;;;;;;5112533;28;20420;-63
2023/03/31 04:49:56;;;;;;;2.47;0.95;;;11.00;99.90;;;;;;5113759;28;20420;-62
2023/03/31 04:52:24;;;;;;;1.67;0.70;;;11.10;99.90;;;;;;5113729;28;20416;-62
2023/03/31 04:54:52;;;;;;;1.50;0.70;;;11.00;99.90;;;;;;5117082;28;20419;-63
2023/03/31 04:57:20;;;;;;;1.20;0.70;;;10.90;99.90;;;;;;5118070;28;20446;-63
2023/03/31 04:59:47;;;;;;;2.17;1.30;;;10.90;99.90;;;;;;5117813;28;20891;-63
2023/03/31 05:02:20;;;;;;;2.03;0.70;;;10.90;99.90;;;;;;5117294;28;20807;-63
2023/03/31 05:04:47;;;;;;;1.40;0.70;;;10.80;99.90;;;;;;5117238;28;20416;-64
2023/03/31 05:07:14;;;;;;;1.27;0.80;;;10.80;99.90;;;;;;5117025;28;20435;-63
2023/03/31 05:09:41;;;;;;;2.80;0.80;;;10.80;99.90;;;;;;5114929;28;20419;-62
2023/03/31 05:12:10;;;;;;;2.60;0.70;;;10.90;99.90;;;;;;5115741;28;20435;-62
2023/03/31 05:14:37;;;;;;;1.90;0.80;;;11.00;99.90;;;;;;5115084;28;20439;-59
2023/03/31 05:17:04;;;;;;;1.80;0.70;;;11.00;99.90;;;;;;5115364;28;20443;-60
2023/03/31 05:19:31;;;;;;;1.48;0.80;;;11.20;99.90;;;;;;5115073;28;20435;-60
2023/03/31 05:21:59;;;;;;;2.58;0.80;;;11.20;99.90;;;;;;5116454;28;20456;-59
2023/03/31 05:24:27;;;;;;;2.10;0.80;;;11.10;99.90;;;;;;5114814;28;20420;-60
2023/03/31 05:26:54;;;;;;;1.70;0.80;;;11.10;99.90;;;;;;5115786;28;20423;-59
2023/03/31 05:29:23;;;;;;;2.50;0.90;;;11.00;99.90;;;;;;5115770;28;20557;-59
2023/03/31 05:31:52;;;;;;;1.20;0.90;;;10.90;99.90;;;;;;5115669;28;20684;-59
2023/03/31 05:34:20;;;;;;;2.33;0.80;;;10.90;99.90;;;;;;5115903;28;20428;-58
2023/03/31 05:36:49;;;;;;;1.50;0.82;;;10.90;99.90;;;;;;5115961;28;20799;-57
2023/03/31 05:39:17;;;;;;;1.45;0.80;;;10.80;99.90;;;;;;5108557;28;20481;-55
2023/03/31 05:41:44;;;;;;;2.20;0.80;;;10.80;99.90;;;;;;5095276;28;20491;-56
2023/03/31 05:44:11;;;;;;;1.60;0.90;;;10.70;99.90;;;;;;5094915;28;20717;-57
2023/03/31 05:46:40;;;;;;;1.50;0.90;;;10.60;99.90;;;;;;5095487;28;20453;-56
2023/03/31 05:49:07;;;;;;;3.10;0.90;;;10.50;99.90;;;;;;5094658;28;20453;-53
2023/03/31 05:51:34;;;;;;;2.33;0.90;;;10.50;99.90;;;;;;5094971;28;20426;-53
2023/03/31 05:54:01;;;;;;;3.55;0.90;;;10.30;99.90;;;;;;5096302;28;20527;-56
2023/03/31 05:56:28;;;;;;;2.40;0.80;;;10.30;99.90;;;;;;5095192;28;20745;-57
2023/03/31 05:58:55;;;;;;;2.10;1.00;;;10.20;99.90;;;;;;5103087;28;20436;-56
2023/03/31 06:01:23;;;;;;;1.60;0.90;;;10.10;99.90;;;;;;5114996;28;20411;-56
2023/03/31 06:03:52;;;;;;;3.80;1.00;;;10.10;99.90;;;;;;5114046;28;20416;-57
2023/03/31 06:06:20;;;;;;;4.05;0.90;;;10.10;99.90;;;;;;5113348;28;20435;-57
2023/03/31 06:08:48;;;;;;;1.80;0.80;;;10.10;99.90;;;;;;5113928;28;20408;-57
2023/03/31 06:11:18;;;;;;;5.25;1.00;;;10.00;99.90;;;;;;5113059;28;20412;-56
2023/03/31 06:13:45;;;;;;;2.72;0.90;;;10.00;99.90;;;;;;5116493;28;20832;-58
2023/03/31 06:16:13;;;;;;;3.00;1.00;;;10.00;99.90;;;;;;5115819;28;20851;-58
2023/03/31 06:18:41;;;;;;;2.20;1.00;;;10.00;99.90;;;;;;5115275;28;20429;-60
2023/03/31 06:21:12;;;;;;;2.30;1.00;;;10.00;99.90;;;;;;5114208;28;20435;-58
2023/03/31 06:23:39;;;;;;;2.95;1.00;;;10.00;99.90;;;;;;5113636;28;20924;-59
2023/03/31 06:26:08;;;;;;;3.40;1.10;;;10.00;99.90;;;;;;5113274;28;20843;-58
2023/03/31 06:28:36;;;;;;;3.40;1.15;;;10.00;99.90;;;;;;5114816;28;20906;-58
2023/03/31 06:31:05;;;;;;;3.35;1.00;;;10.10;99.90;;;;;;5107299;28;20868;-58
2023/03/31 06:33:32;;;;;;;3.05;1.10;;;10.10;99.90;;;;;;5094777;28;20421;-59
2023/03/31 06:36:00;;;;;;;4.13;1.20;;;10.10;99.90;;;;;;5093987;28;20418;-58
2023/03/31 06:38:29;;;;;;;3.17;1.30;;;10.10;99.90;;;;;;5091857;28;20438;-58
2023/03/31 06:40:56;;;;;;;2.00;1.00;;;10.10;99.90;;;;;;5092023;28;20837;-57
2023/03/31 06:43:23;;;;;;;2.92;1.00;;;10.20;99.90;;;;;;5091743;28;20444;-57
2023/03/31 06:45:50;;;;;;;4.20;0.90;;;10.20;99.90;;;;;;5092026;28;20425;-54
2023/03/31 06:48:17;;;;;;;2.70;1.10;;;10.20;99.90;;;;;;5091707;28;20456;-54
2023/03/31 06:50:44;;;;;;;2.47;0.90;;;10.30;99.90;;;;;;5093491;28;20414;-51
2023/03/31 06:53:11;;;;;;;2.70;1.10;;;10.20;99.90;;;;;;5092478;28;20430;-55
2023/03/31 06:55:43;;;;;;;2.20;1.10;;;10.10;99.90;;;;;;5093837;28;20448;-54
2023/03/31 06:58:11;;;;;;;4.70;1.13;;;10.00;99.90;;;;;;5094406;28;20425;-54
2023/03/31 07:00:38;;;;;;;2.30;1.10;;;10.00;99.90;;;;;;5113569;28;20416;-56
2023/03/31 07:03:07;;;;;;;2.70;1.30;;;9.90;99.90;;;;;;5113377;28;20740;-54
2023/03/31 07:05:34;;;;;;;5.30;1.20;;;9.90;99.90;;;;;;5113703;28;20448;-50
2023/03/31 07:08:02;;;;;;;1.90;1.20;;;9.80;99.90;;;;;;5113504;28;20420;-54
2023/03/31 07:10:30;;;;;;;4.43;1.10;;;9.90;99.90;;;;;;5114034;28;20409;-53
2023/03/31 07:12:59;;;;;;;3.63;1.20;;;10.00;99.90;;;;;;5114329;28;20517;-53
2023/03/31 07:15:28;;;;;;;3.13;1.00;;;10.10;99.90;;;;;;5113696;28;20463;-54
2023/03/31 07:18:00;;;;;;;2.20;1.00;;;10.20;99.90;;;;;;5112773;28;20859;-55
2023/03/31 07:20:28;;;;;;;1.63;1.00;;;10.30;99.90;;;;;;5113272;28;20511;-55
2023/03/31 07:22:55;;;;;;;1.20;0.90;;;10.30;99.90;;;;;;5112501;28;20432;-55
2023/03/31 07:25:24;;;;;;;1.52;0.80;;;10.50;99.90;;;;;;5112088;28;20412;-54
2023/03/31 07:27:51;;;;;;;1.40;0.80;;;10.50;99.90;;;;;;5112169;28;20420;-58
2023/03/31 07:30:21;;;;;;;1.00;0.70;;;10.50;99.90;;;;;;5112145;28;20423;-55
2023/03/31 07:32:50;;;;;;;1.20;0.70;;;10.50;99.90;;;;;;5112651;28;20983;-56
2023/03/31 07:35:18;;;;;;;2.60;0.60;;;10.70;99.90;;;;;;5112734;28;20415;-55
2023/03/31 07:37:47;;;;;;;1.45;0.60;;;10.70;99.90;;;;;;5113041;28;20427;-56
2023/03/31 07:40:17;;;;;;;0.77;0.50;;;10.70;99.90;;;;;;5113385;28;20446;-54
2023/03/31 07:42:45;;;;;;;1.50;0.60;;;10.80;99.90;;;;;;5110706;28;20443;-57
2023/03/31 07:45:13;;;;;;;1.92;0.60;;;10.80;99.90;;;;;;5101092;28;20420;-54
2023/03/31 07:47:42;;;;;;;0.90;0.50;;;10.90;99.90;;;;;;5104587;28;20432;-61
2023/03/31 07:50:09;;;;;;;0.70;0.50;;;11.00;99.90;;;;;;5108419;28;20798;-58
2023/03/31 07:52:37;;;;;;;1.55;0.47;;;11.10;99.90;;;;;;5089987;28;20791;-56
2023/03/31 07:55:04;;;;;;;0.63;0.40;;;11.10;99.90;;;;;;5092673;28;20859;-56
2023/03/31 07:57:31;;;;;;;0.50;0.30;;;11.10;99.90;;;;;;5091837;28;21051;-56
2023/03/31 07:59:59;;;;;;;0.60;0.30;;;11.10;99.90;;;;;;5108136;28;20428;-57
2023/03/31 08:02:26;;;;;;;0.90;0.40;;;11.20;99.90;;;;;;5111567;28;20434;-57
2023/03/31 08:04:55;;;;;;;0.40;0.30;;;11.30;99.90;;;;;;5110855;28;20443;-58
2023/03/31 08:07:22;;;;;;;0.90;0.30;;;11.30;99.90;;;;;;5111891;28;20528;-58
2023/03/31 08:09:49;;;;;;;0.60;0.30;;;11.30;99.90;;;;;;5111544;28;20422;-58
2023/03/31 08:12:16;;;;;;;0.70;0.60;;;11.30;99.90;;;;;;5110385;28;20424;-58
2023/03/31 08:14:43;;;;;;;0.50;0.30;;;11.60;99.90;;;;;;5099254;28;20852;-58
2023/03/31 08:17:11;;;;;;;0.90;0.43;;;11.60;99.90;;;;;;5090507;28;20429;-58
2023/03/31 08:19:38;;;;;;;0.50;0.30;;;11.70;99.90;;;;;;5091172;28;20871;-59
2023/03/31 08:22:06;;;;;;;1.00;0.30;;;11.80;99.90;;;;;;5090889;28;20830;-58
2023/03/31 08:24:33;;;;;;;0.70;0.20;;;11.90;99.90;;;;;;5091883;28;20521;-58
2023/03/31 08:27:00;;;;;;;0.50;0.20;;;11.90;99.90;;;;;;5092166;28;20432;-58
2023/03/31 08:29:27;;;;;;;0.50;0.30;;;12.00;99.90;;;;;;5108289;28;20453;-56
2023/03/31 08:31:55;;;;;;;0.70;0.30;;;12.10;99.90;;;;;;5115566;28;20424;-58
2023/03/31 08:34:22;;;;;;;0.80;0.30;;;12.20;99.90;;;;;;5116124;28;20512;-59
2023/03/31 08:36:49;;;;;;;0.95;0.22;;;12.30;99.90;;;;;;5116953;28;20435;-59
2023/03/31 08:39:17;;;;;;;0.70;0.32;;;12.30;99.90;;;;;;5113513;28;20519;-58
2023/03/31 08:41:56;;;;;;;0.82;0.30;;;12.40;99.90;;;;;;5106399;28;20425;-58
2023/03/31 08:44:29;;;;;;;0.65;0.20;;;12.60;99.90;;;;;;5112098;28;20451;-58
2023/03/31 08:46:58;;;;;;;0.50;0.20;;;12.80;99.90;;;;;;5115389;28;20868;-57
2023/03/31 08:49:28;;;;;;;0.60;0.30;;;13.00;99.90;;;;;;5115193;28;20416;-58
2023/03/31 08:51:59;;;;;;;0.60;0.30;;;13.20;99.90;;;;;;5115741;28;20420;-57
2023/03/31 08:54:33;;;;;;;1.00;0.30;;;13.30;99.90;;;;;;5115014;28;20419;-58
2023/03/31 08:57:06;;;;;;;0.60;0.30;;;13.30;99.90;;;;;;5114312;28;20870;-57
2023/03/31 08:59:36;;;;;;;0.80;0.30;;;13.40;99.90;;;;;;5115159;28;20724;-60
2023/03/31 09:02:17;;;;;;;0.70;0.30;;;13.40;99.90;;;;;;5096196;28;20429;-58
2023/03/31 09:04:54;;;;;;;0.50;0.30;;;13.50;99.90;;;;;;5094420;28;20425;-59
2023/03/31 09:07:31;;;;;;;0.60;0.30;;;13.60;99.90;;;;;;5095083;28;20473;-59
2023/03/31 09:10:10;;;;;;;0.80;0.20;;;13.70;99.90;;;;;;5095005;28;20712;-59
2023/03/31 09:12:46;;;;;;;0.50;0.30;;;13.70;99.90;;;;;;5094940;28;20494;-59
2023/03/31 09:15:17;;;;;;;0.80;0.30;;;13.80;99.90;;;;;;5094263;28;20421;-56
2023/03/31 09:17:50;;;;;;;0.60;0.30;;;13.90;99.90;;;;;;5101384;28;20434;-59
2023/03/31 09:20:20;;;;;;;0.60;0.20;;;14.00;99.90;;;;;;5099153;28;20791;-58
2023/03/31 09:22:52;;;;;;;0.80;0.30;;;14.10;99.90;;;;;;5093716;28;20432;-59
2023/03/31 09:25:25;;;;;;;0.60;0.30;;;14.30;99.90;;;;;;5095159;28;20425;-57
2023/03/31 09:27:55;;;;;;;1.02;0.40;;;14.40;99.90;;;;;;5095888;28;20432;-59
2023/03/31 09:30:27;;;;;;;0.50;0.30;;;14.50;99.90;;;;;;5095070;28;20432;-58
2023/03/31 09:33:10;;;;;;;1.50;0.30;;;14.50;99.90;;;;;;5094061;28;20429;-59
2023/03/31 09:35:37;;;;;;;0.73;0.30;;;14.60;99.90;;;;;;5093686;28;20414;-58
2023/03/31 09:38:04;;;;;;;0.70;0.30;;;14.70;99.90;;;;;;5093357;28;20472;-58
2023/03/31 09:40:34;;;;;;;1.40;0.30;;;14.80;99.90;;;;;;5093324;28;20426;-59
2023/03/31 09:43:05;;;;;;;0.50;0.20;;;14.80;99.90;;;;;;5093547;28;20425;-58
2023/03/31 09:45:33;;;;;;;0.90;0.30;;;14.80;99.90;;;;;;5094522;28;20729;-58
2023/03/31 09:48:05;;;;;;;0.90;0.30;;;14.70;99.90;;;;;;5093939;28;20483;-59
2023/03/31 09:50:36;;;;;;;0.70;0.20;;;14.50;99.90;;;;;;5094660;28;20492;-58
2023/03/31 09:53:07;;;;;;;1.00;0.30;;;14.50;99.90;;;;;;5093357;28;20441;-57
2023/03/31 09:55:44;;;;;;;1.80;0.30;;;14.60;99.90;;;;;;5099588;28;20431;-57
2023/03/31 09:58:14;;;;;;;0.90;0.30;;;14.70;99.90;;;;;;5112237;28;20664;-58
2023/03/31 10:00:43;;;;;;;0.60;0.30;;;15.00;99.90;;;;;;5113107;28;20866;-57
2023/03/31 10:03:13;;;;;;;0.90;0.30;;;15.00;99.90;;;;;;5115145;28;20428;-57
2023/03/31 10:05:50;;;;;;;0.65;0.30;;;15.10;99.90;;;;;;5114627;28;20469;-55
2023/03/31 10:08:25;;;;;;;0.60;0.30;;;15.00;99.90;;;;;;5114863;28;20820;-57
2023/03/31 10:10:55;;;;;;;0.80;0.40;;;15.10;99.90;;;;;;5113330;28;20408;-57
2023/03/31 10:13:25;;;;;;;1.40;0.40;;;15.40;99.90;;;;;;5114325;28;20910;-57
2023/03/31 10:15:53;;;;;;;0.70;0.27;;;15.70;99.90;;;;;;5112475;28;20761;-56
2023/03/31 10:18:23;;;;;;;0.75;0.30;;;15.80;99.90;;;;;;5112842;28;20424;-57
2023/03/31 10:20:53;;;;;;;0.80;0.30;;;16.10;99.90;;;;;;5113801;28;20420;-58
2023/03/31 10:23:27;;;;;;;0.90;0.30;;;16.30;99.90;;;;;;5111216;28;20420;-56
2023/03/31 10:25:56;;;;;;;0.70;0.30;;;16.40;99.90;;;;;;5113869;28;20689;-56
2023/03/31 10:28:24;;;;;;;1.17;0.30;;;16.10;99.90;;;;;;5113046;28;20435;-58
2023/03/31 10:30:53;;;;;;;1.10;0.30;;;16.20;99.90;;;;;;5113579;28;20559;-58
2023/03/31 10:33:23;;;;;;;0.80;0.40;;;16.30;99.90;;;;;;5113301;28;20428;-57
2023/03/31 10:35:56;;;;;;;0.90;0.30;;;16.20;99.90;;;;;;5112977;28;20618;-57
2023/03/31 10:38:27;;;;;;;1.80;0.40;;;16.50;99.90;;;;;;5110444;28;20420;-59
2023/03/31 10:40:58;;;;;;;1.08;0.40;;;16.80;99.90;;;;;;5111576;28;20486;-59
2023/03/31 10:43:27;;;;;;;1.13;0.30;;;16.60;99.90;;;;;;5110765;28;20416;-48
2023/03/31 10:45:56;;;;;;;0.70;0.23;;;16.60;99.90;;;;;;5111987;28;20443;-58
2023/03/31 10:48:26;;;;;;;1.25;0.30;;;16.80;99.90;;;;;;5110666;28;20754;-58
2023/03/31 10:50:55;;;;;;;1.65;0.50;;;16.50;99.90;;;;;;5111006;28;20416;-60
2023/03/31 10:53:22;;;;;;;0.95;0.30;;;17.00;99.90;;;;;;5110585;28;21081;-60
2023/03/31 10:56:03;;;;;;;1.13;0.30;;;17.10;99.90;;;;;;5110677;28;20924;-60
2023/03/31 10:58:44;;;;;;;1.15;0.30;;;17.00;99.90;;;;;;5112933;28;20515;-61
2023/03/31 11:01:25;;;;;;;3.28;0.30;;;16.90;99.90;;;;;;5112348;28;20431;-61
2023/03/31 11:04:05;;;;;;;0.80;0.20;;;16.90;99.90;;;;;;5112874;28;20430;-60
2023/03/31 11:06:40;;;;;;;0.83;0.30;;;16.70;99.90;;;;;;5109577;28;20432;-60
2023/03/31 11:09:22;;;;;;;1.65;0.30;;;16.70;99.90;;;;;;5110483;28;20514;-63
2023/03/31 11:12:01;;;;;;;0.70;0.30;;;16.60;99.90;;;;;;5111221;28;20427;-62
2023/03/31 11:14:39;;;;;;;0.63;0.20;;;16.40;99.90;;;;;;5112471;28;20831;-61
2023/03/31 11:17:17;;;;;;;2.60;0.50;;;16.20;99.90;;;;;;5112600;28;20428;-60
2023/03/31 11:19:53;;;;;;;1.00;0.30;;;16.10;99.90;;;;;;5113148;28;20463;-60
2023/03/31 11:22:30;;;;;;;1.55;0.30;;;15.60;99.90;;;;;;5104687;28;20430;-58
2023/03/31 11:25:22;;;;;;;0.60;0.20;;;14.70;99.90;;;;;;5098919;28;20421;-59
2023/03/31 11:28:11;;;;;;;0.60;0.20;;;13.60;99.90;;;;;;5087817;28;20839;-61
2023/03/31 11:30:42;;;;;;;2.53;0.20;;;12.10;99.90;;;;;;5090618;28;20837;-61
2023/03/31 11:33:36;;;;;;;0.50;0.20;;;11.70;99.90;;;;;;5091768;28;20426;-62
2023/03/31 11:36:18;;;;;;;0.50;0.20;;;11.40;99.90;;;;;;5089898;28;21073;-62
2023/03/31 11:38:53;;;;;;;0.70;0.30;;;11.20;99.90;;;;;;5092549;28;20418;-63
2023/03/31 11:41:27;;;;;;;0.80;0.20;;;11.30;99.90;;;;;;5091292;28;20434;-63
2023/03/31 11:44:02;;;;;;;0.40;0.20;;;11.40;99.90;;;;;;5091931;28;20864;-63
2023/03/31 11:46:37;;;;;;;0.50;0.20;;;11.30;99.90;;;;;;5108321;28;20428;-60
2023/03/31 11:49:11;;;;;;;1.90;0.30;;;11.30;99.90;;;;;;5112215;28;20404;-62
2023/03/31 11:51:47;;;;;;;0.80;0.20;;;11.30;99.90;;;;;;5110526;28;20416;-62
2023/03/31 11:54:20;;;;;;;1.20;0.20;;;11.30;99.90;;;;;;5111953;28;20517;-61
2023/03/31 11:56:48;;;;;;;0.70;0.30;;;11.40;99.90;;;;;;5110575;28;20455;-60
2023/03/31 11:59:19;;;;;;;0.77;0.20;;;11.60;99.90;;;;;;5111148;28;20451;-61
2023/03/31 12:01:51;;;;;;;1.00;0.20;;;11.70;99.90;;;;;;5114714;28;20428;-61
2023/03/31 12:04:29;;;;;;;0.40;0.10;;;11.70;99.90;;;;;;5119543;28;20689;-60
2023/03/31 12:07:02;;;;;;;0.40;0.20;;;11.90;99.90;;;;;;5119571;28;20427;-60
2023/03/31 12:09:38;;;;;;;0.40;0.10;;;12.20;99.90;;;;;;5103993;28;20440;-60
2023/03/31 12:12:10;;;;;;;0.30;0.10;;;12.80;99.90;;;;;;5097712;28;20868;-59
2023/03/31 12:14:43;;;;;;;0.47;0.20;;;13.20;99.90;;;;;;5098853;28;20418;-59
2023/03/31 12:17:12;;;;;;;1.08;0.20;;;13.50;99.90;;;;;;5098064;28;20461;-58
2023/03/31 12:19:47;;;;;;;0.40;0.20;;;13.70;99.90;;;;;;5099598;28;20501;-59
2023/03/31 12:22:19;;;;;;;0.50;0.10;;;13.40;99.90;;;;;;5098198;28;20421;-61
2023/03/31 12:24:47;;;;;;;0.50;0.20;;;13.30;99.90;;;;;;5098437;28;20428;-59
2023/03/31 12:27:18;;;;;;;0.40;0.15;;;13.50;99.90;;;;;;5098152;28;20899;-59
2023/03/31 12:29:53;;;;;;;1.05;0.30;;;13.70;99.90;;;;;;5113623;28;20694;-59
2023/03/31 12:32:24;;;;;;;0.47;0.20;;;14.30;99.90;;;;;;5116998;28;20867;-58
2023/03/31 12:34:56;;;;;;;0.47;0.20;;;14.50;99.90;;;;;;5118407;28;20415;-58
2023/03/31 12:37:46;;;;;;;0.80;0.20;;;14.50;99.90;;;;;;5119086;28;20428;-60
2023/03/31 12:40:23;;;;;;;0.40;0.10;;;14.40;99.90;;;;;;5116735;28;20867;-59
2023/03/31 12:43:08;;;;;;;0.40;0.17;;;14.50;99.90;;;;;;5118203;28;20728;-59
2023/03/31 12:45:42;;;;;;;0.90;0.20;;;15.00;99.90;;;;;;5118060;28;20408;-58
2023/03/31 12:48:43;;;;;;;0.70;0.20;;;15.30;99.90;;;;;;5118301;28;20756;-59
2023/03/31 12:51:24;;;;;;;0.60;0.20;;;15.10;99.90;;;;;;5118532;28;20820;-59
2023/03/31 12:54:05;;;;;;;0.80;0.20;;;14.80;99.90;;;;;;5118847;28;20416;-59
2023/03/31 12:57:03;;;;;;;0.50;0.20;;;15.00;99.90;;;;;;5118239;28;20427;-60
2023/03/31 12:59:34;;;;;;;0.40;0.20;;;15.30;99.90;;;;;;5118330;28;20439;-60
2023/03/31 13:02:23;;;;;;;0.90;0.20;;;15.30;99.90;;;;;;5116174;28;20432;-58
2023/03/31 13:04:50;;;;;;;0.50;0.20;;;15.30;99.90;;;;;;5116984;28;20466;-59
2023/03/31 13:07:37;;;;;;;0.70;0.20;;;15.20;99.90;;;;;;5116336;28;20420;-58
2023/03/31 13:10:27;;;;;;;0.70;0.28;;;15.30;99.90;;;;;;5115664;28;20831;-58
2023/03/31 13:13:04;;;;;;;0.60;0.20;;;15.20;99.90;;;;;;5099686;28;20429;-58